Time;durP1;ratioP1;P1;durP2;ratioP2;P2;SDS_P1;SDS_P2;PMS_P1;PMS_P2;Temp;Humidity;BMP_temperature;BMP_pressure;BME280_temperature;BME280_humidity;BME280_pressure;Samples;Min_cycle;Max_cycle;Signal;HPM_P1;HPM_P2
2024/02/21 00:02:05;;;;;;;21.83;8.20;;;;;;;6.81;87.77;99416.25;5015518;28;20065;-86
2024/02/21 00:04:31;;;;;;;21.45;8.07;;;;;;;6.92;87.70;99396.19;5017405;28;20042;-86
2024/02/21 00:06:56;;;;;;;17.30;7.25;;;;;;;6.18;87.87;99305.72;5036040;28;20029;-86
2024/02/21 00:09:21;;;;;;;20.15;8.18;;;;;;;6.76;88.16;99408.09;5010048;28;20508;-86
2024/02/21 00:11:47;;;;;;;20.58;7.57;;;;;;;6.93;87.79;99403.09;5016531;28;20524;-86
2024/02/21 00:14:13;;;;;;;20.52;6.85;;;;;;;6.87;88.19;99406.59;5039239;28;20088;-87
2024/02/21 00:16:38;;;;;;;18.73;7.25;;;;;;;6.65;88.17;99387.50;5036323;28;20120;-87
2024/02/21 00:19:04;;;;;;;21.73;7.35;;;;;;;6.30;87.85;99322.56;5027037;28;20089;-86
2024/02/21 00:21:29;;;;;;;18.70;7.40;;;;;;;6.54;88.84;99391.63;5015520;28;20029;-86
2024/02/21 00:23:55;;;;;;;15.60;6.25;;;;;;;6.15;90.30;99330.78;5039885;28;20072;-86
2024/02/21 00:26:21;;;;;;;23.60;7.03;;;;;;;6.69;89.94;99396.69;5031545;28;20430;-86
2024/02/21 00:28:46;;;;;;;13.73;5.65;;;;;;;6.46;88.98;99361.88;5028002;28;20041;-86
2024/02/21 00:31:11;;;;;;;18.05;7.40;;;;;;;6.60;89.53;99400.56;5021700;28;20084;-87
2024/02/21 00:33:37;;;;;;;21.40;6.68;;;;;;;6.35;89.73;99362.53;5033607;28;20108;-87
2024/02/21 00:36:02;;;;;;;23.30;7.72;;;;;;;6.59;89.63;99396.31;5023596;28;20030;-86
2024/02/21 00:38:28;;;;;;;23.83;7.57;;;;;;;6.50;89.51;99385.13;5030010;28;20048;-86
2024/02/21 00:40:54;;;;;;;21.73;6.82;;;;;;;6.47;90.19;99392.66;5002243;28;20029;-86
2024/02/21 00:43:23;;;;;;;18.85;5.90;;;;;;;6.34;90.22;99360.88;4998882;28;20025;-86
2024/02/21 00:45:49;;;;;;;24.17;7.72;;;;;;;6.55;90.11;99385.28;5015672;28;20037;-86
2024/02/21 00:48:14;;;;;;;23.23;7.95;;;;;;;6.57;89.67;99383.28;5030474;28;20068;-86
2024/02/21 00:50:40;;;;;;;22.40;6.70;;;;;;;6.56;90.47;99386.94;5015252;28;20042;-86
2024/02/21 00:53:05;;;;;;;19.83;8.15;;;;;;;6.30;90.15;99349.91;5016443;28;20034;-86
2024/02/21 00:55:31;;;;;;;12.38;6.25;;;;;;;6.57;89.86;99377.97;5035751;28;20045;-85
2024/02/21 00:57:56;;;;;;;20.63;7.47;;;;;;;5.90;90.14;99284.78;5032463;28;20033;-85
2024/02/21 01:00:22;;;;;;;18.25;7.22;;;;;;;6.44;90.34;99369.25;5030111;28;20018;-86
2024/02/21 01:02:47;;;;;;;15.63;7.72;;;;;;;6.48;90.33;99373.91;5031987;28;20124;-86
2024/02/21 01:05:13;;;;;;;22.10;7.57;;;;;;;6.39;90.49;99358.44;5033929;28;20029;-87
2024/02/21 01:07:38;;;;;;;21.25;8.02;;;;;;;6.37;90.50;99342.75;4999924;28;20038;-86
2024/02/21 01:10:04;;;;;;;17.58;7.88;;;;;;;6.54;89.80;99356.34;5006746;28;20033;-86
2024/02/21 01:12:29;;;;;;;21.35;7.82;;;;;;;6.54;89.83;99366.94;5032228;28;20033;-87
2024/02/21 01:14:55;;;;;;;15.38;7.85;;;;;;;6.43;90.10;99355.16;5027240;28;20154;-86
2024/02/21 01:17:20;;;;;;;20.40;9.52;;;;;;;6.59;89.70;99356.53;5016862;28;20029;-85
2024/02/21 01:19:46;;;;;;;23.73;7.28;;;;;;;5.74;90.37;99230.41;5033706;28;20049;-86
2024/02/21 01:22:12;;;;;;;16.50;6.47;;;;;;;6.58;89.92;99352.25;5035124;28;20025;-86
2024/02/21 01:24:37;;;;;;;19.02;8.05;;;;;;;6.20;89.86;99291.22;5016298;28;20052;-86
2024/02/21 01:27:03;;;;;;;21.83;7.28;;;;;;;6.05;89.74;99251.72;5028867;28;20474;-86
2024/02/21 01:29:28;;;;;;;23.65;7.45;;;;;;;6.00;90.41;99253.38;5016996;28;20034;-86
2024/02/21 01:31:53;;;;;;;19.77;6.97;;;;;;;6.48;89.87;99314.75;5032412;28;20045;-86
2024/02/21 01:34:19;;;;;;;23.40;7.90;;;;;;;6.27;89.45;99272.66;5019535;28;20047;-86
2024/02/21 01:36:44;;;;;;;17.02;7.13;;;;;;;6.09;90.28;99261.91;5012584;28;20036;-86
2024/02/21 01:39:10;;;;;;;22.33;7.40;;;;;;;6.45;90.96;99323.94;5014380;28;20455;-86
2024/02/21 01:41:35;;;;;;;16.27;7.03;;;;;;;6.30;91.03;99306.66;5030615;28;20107;-86
2024/02/21 01:44:00;;;;;;;23.13;8.32;;;;;;;6.60;90.26;99334.28;5015118;28;20048;-89
2024/02/21 01:46:28;;;;;;;24.63;8.10;;;;;;;6.50;89.73;99310.88;5031121;28;20101;-88
2024/02/21 01:48:55;;;;;;;24.42;8.25;;;;;;;6.48;90.77;99317.41;5033289;28;20034;-88
2024/02/21 01:51:21;;;;;;;22.23;8.68;;;;;;;6.60;89.93;99321.84;5034345;28;20029;-88
2024/02/21 01:53:47;;;;;;;18.05;7.95;;;;;;;6.67;89.64;99322.63;5032550;28;20231;-88
2024/02/21 01:56:12;;;;;;;24.98;8.38;;;;;;;6.04;89.14;99251.94;5009844;28;20528;-88
2024/02/21 01:58:40;;;;;;;15.27;6.53;;;;;;;6.18;90.50;99250.84;5034824;28;20033;-88
2024/02/21 02:01:06;;;;;;;21.33;7.80;;;;;;;6.41;89.49;99245.03;5035356;28;20562;-88
2024/02/21 02:03:31;;;;;;;19.15;7.78;;;;;;;6.66;89.65;99275.91;5026552;28;20421;-88
2024/02/21 02:05:57;;;;;;;19.02;7.35;;;;;;;6.71;89.73;99309.75;5037002;28;20033;-88
2024/02/21 02:08:22;;;;;;;15.82;8.43;;;;;;;6.31;89.66;99279.16;5036024;28;20029;-86
2024/02/21 02:10:48;;;;;;;26.13;8.45;;;;;;;6.50;90.00;99294.97;5034335;28;20029;-88
2024/02/21 02:13:14;;;;;;;19.05;8.35;;;;;;;6.33;90.25;99303.59;5034263;28;20036;-88
2024/02/21 02:15:44;;;;;;;22.40;7.93;;;;;;;6.40;91.07;99299.09;5036416;28;20034;-89
2024/02/21 02:18:11;;;;;;;14.05;7.60;;;;;;;6.43;89.72;99265.00;5031858;28;20208;-86
2024/02/21 02:20:37;;;;;;;22.58;7.70;;;;;;;6.54;90.12;99295.34;5030153;28;20034;-88
2024/02/21 02:23:29;;;;;;;24.70;9.13;;;;;;;6.50;90.68;99270.28;5019849;28;20129;-88
2024/02/21 02:25:55;;;;;;;27.10;8.15;;;;;;;6.69;90.31;99290.56;5037775;28;20046;-87
2024/02/21 02:28:21;;;;;;;17.60;8.43;;;;;;;6.73;89.60;99281.97;5020306;28;20037;-86
2024/02/21 02:30:47;;;;;;;20.55;9.25;;;;;;;6.29;90.96;99267.94;5033095;28;20476;-87
2024/02/21 02:33:12;;;;;;;21.98;8.93;;;;;;;6.68;89.39;99268.53;5033201;28;20025;-87
2024/02/21 02:35:38;;;;;;;18.10;7.70;;;;;;;6.13;88.99;99197.69;5036976;28;20405;-87
2024/02/21 02:38:04;;;;;;;20.63;8.68;;;;;;;6.54;90.58;99245.78;5036936;28;20121;-87
2024/02/21 02:40:30;;;;;;;20.63;8.98;;;;;;;6.52;91.21;99263.75;5014382;28;20076;-87
2024/02/21 02:42:56;;;;;;;24.10;8.15;;;;;;;6.43;90.05;99233.19;5037686;28;20067;-87
2024/02/21 02:45:26;;;;;;;27.40;9.73;;;;;;;6.57;90.30;99257.81;5036460;28;20037;-87
2024/02/21 02:47:56;;;;;;;18.73;9.55;;;;;;;6.42;90.63;99220.16;5033783;28;20033;-87
2024/02/21 02:50:26;;;;;;;18.40;8.43;;;;;;;6.62;90.35;99223.50;5032600;28;20033;-86
2024/02/21 02:52:52;;;;;;;24.05;8.73;;;;;;;6.64;89.31;99240.81;5031178;28;20030;-86
2024/02/21 02:55:18;;;;;;;21.60;9.65;;;;;;;6.53;89.37;99217.63;5032912;28;20033;-87
2024/02/21 02:57:43;;;;;;;22.15;9.18;;;;;;;6.48;91.48;99232.56;5036701;28;20022;-87
2024/02/21 03:00:10;;;;;;;19.88;8.55;;;;;;;6.54;90.88;99226.41;5036535;28;20040;-88
2024/02/21 03:02:37;;;;;;;25.00;8.27;;;;;;;6.44;90.77;99213.63;5020188;28;20033;-87
2024/02/21 03:05:13;;;;;;;22.00;9.25;;;;;;;6.48;90.25;99201.56;5034515;28;20489;-87
2024/02/21 03:07:38;;;;;;;;;;;;;;;6.45;89.99;99230.31;5036515;28;20017;-87
2024/02/21 03:10:04;;;;;;;23.90;8.83;;;;;;;6.52;91.03;99228.47;5012512;28;19921;-87
2024/02/21 03:12:30;;;;;;;18.98;8.30;;;;;;;6.11;90.70;99170.59;5032060;28;20037;-87
2024/02/21 03:14:55;;;;;;;27.80;8.95;;;;;;;6.25;90.75;99185.38;5002352;28;20042;-87
2024/02/21 03:17:21;;;;;;;23.38;8.93;;;;;;;6.40;89.94;99185.09;5036479;28;20026;-87
2024/02/21 03:19:48;;;;;;;19.00;9.27;;;;;;;6.12;90.61;99135.09;5034386;28;20033;-86
2024/02/21 03:22:14;;;;;;;22.85;8.88;;;;;;;6.46;90.58;99185.06;5014714;28;20030;-87
2024/02/21 03:24:39;;;;;;;20.90;8.48;;;;;;;6.66;90.28;99211.47;5038093;28;20490;-87
2024/02/21 03:27:04;;;;;;;21.83;9.13;;;;;;;6.64;90.58;99187.78;5010193;28;20089;-87
2024/02/21 03:29:30;;;;;;;23.05;8.85;;;;;;;6.62;89.75;99215.53;5033449;28;20033;-88
2024/02/21 03:31:55;;;;;;;24.52;9.23;;;;;;;6.35;90.69;99188.41;5011945;28;20057;-87
2024/02/21 03:34:21;;;;;;;28.52;9.25;;;;;;;5.94;90.18;99124.41;5016593;28;20032;-87
2024/02/21 03:36:46;;;;;;;29.00;9.90;;;;;;;6.30;91.63;99190.03;5037408;28;20029;-87
2024/02/21 03:39:11;;;;;;;32.42;10.70;;;;;;;6.44;90.40;99216.28;5016266;28;20048;-87
2024/02/21 03:41:37;;;;;;;18.48;9.30;;;;;;;6.48;89.94;99163.63;5033612;28;20036;-87
2024/02/21 03:44:02;;;;;;;33.25;9.90;;;;;;;6.54;90.37;99210.50;5035197;28;20424;-87
2024/02/21 03:46:28;;;;;;;23.40;10.05;;;;;;;6.73;90.33;99218.31;5007515;28;20034;-87
2024/02/21 03:48:53;;;;;;;27.35;11.50;;;;;;;6.64;89.40;99224.13;5031350;28;20033;-87
2024/02/21 03:51:19;;;;;;;23.50;8.90;;;;;;;6.52;90.87;99197.47;5034394;28;20034;-86
2024/02/21 03:53:44;;;;;;;24.55;9.23;;;;;;;6.51;90.54;99224.19;5036760;28;20040;-88
2024/02/21 03:56:10;;;;;;;26.70;8.90;;;;;;;6.54;90.95;99192.75;5028499;28;20034;-87
2024/02/21 03:58:35;;;;;;;18.00;9.50;;;;;;;6.65;90.16;99207.16;5028391;28;20059;-87
2024/02/21 04:01:01;;;;;;;29.42;9.73;;;;;;;6.65;90.59;99207.97;5016600;28;20091;-87
2024/02/21 04:03:27;;;;;;;24.05;10.55;;;;;;;5.93;91.36;99150.09;5034740;28;20026;-88
2024/02/21 04:05:52;;;;;;;32.55;11.60;;;;;;;6.27;91.99;99188.63;5036814;28;20036;-87
2024/02/21 04:08:18;;;;;;;22.92;9.90;;;;;;;6.24;92.06;99189.06;5033006;28;20037;-87
2024/02/21 04:10:43;;;;;;;28.25;9.88;;;;;;;6.69;91.25;99187.13;5033838;28;20064;-87
2024/02/21 04:13:09;;;;;;;24.30;10.07;;;;;;;6.62;91.16;99187.19;5026622;28;20034;-87
2024/02/21 04:15:35;;;;;;;27.58;10.90;;;;;;;6.46;91.47;99187.72;5031085;28;20048;-87
2024/02/21 04:18:00;;;;;;;28.15;9.50;;;;;;;6.52;90.52;99175.44;5015394;28;20404;-87
2024/02/21 04:20:26;;;;;;;22.33;9.57;;;;;;;6.44;90.65;99135.94;5029438;28;20029;-87
2024/02/21 04:22:51;;;;;;;22.23;9.38;;;;;;;5.96;91.71;99069.38;5013217;28;20056;-86
2024/02/21 04:25:16;;;;;;;28.60;9.85;;;;;;;6.45;90.72;99156.91;5031085;28;20044;-86
2024/02/21 04:27:42;;;;;;;27.45;12.57;;;;;;;6.33;92.28;99132.13;5029132;28;20502;-87
2024/02/21 04:30:09;;;;;;;25.30;10.98;;;;;;;6.47;91.13;99156.69;5016919;28;20108;-87
2024/02/21 04:32:35;;;;;;;26.52;9.75;;;;;;;6.55;91.27;99156.44;5017928;28;20048;-87
2024/02/21 04:35:00;;;;;;;28.73;10.38;;;;;;;6.52;91.69;99159.53;5034189;28;20021;-86
2024/02/21 04:37:26;;;;;;;19.27;9.60;;;;;;;6.53;90.85;99126.69;5033088;28;20029;-87
2024/02/21 04:39:51;;;;;;;20.20;9.93;;;;;;;6.61;90.72;99155.59;5031697;28;20034;-87
2024/02/21 04:42:16;;;;;;;26.67;10.30;;;;;;;6.45;90.20;99134.88;5019626;28;20395;-87
2024/02/21 04:44:42;;;;;;;19.30;9.57;;;;;;;6.57;89.84;99133.19;5030692;28;20040;-88
2024/02/21 04:47:08;;;;;;;21.80;9.07;;;;;;;6.67;89.73;99158.19;5035861;28;20025;-87
2024/02/21 04:49:35;;;;;;;17.70;9.30;;;;;;;6.55;90.97;99162.53;5033205;28;20112;-87
2024/02/21 04:52:01;;;;;;;27.10;10.18;;;;;;;6.58;91.28;99159.47;5027713;28;20097;-87
2024/02/21 04:54:26;;;;;;;27.42;12.00;;;;;;;6.51;90.61;99157.91;5023967;28;20081;-85
2024/02/21 04:56:51;;;;;;;24.80;9.52;;;;;;;6.38;91.29;99144.72;5030044;28;20057;-86
2024/02/21 04:59:17;;;;;;;14.00;9.07;;;;;;;6.39;91.01;99149.00;5032300;28;20056;-87
2024/02/21 05:01:42;;;;;;;19.73;8.60;;;;;;;6.51;91.21;99144.66;5032894;28;20388;-87
2024/02/21 05:04:08;;;;;;;23.58;9.55;;;;;;;6.19;91.81;99117.31;5028856;28;20033;-87
2024/02/21 05:06:41;;;;;;;29.75;10.05;;;;;;;6.34;91.04;99138.22;5031634;28;20038;-87
2024/02/21 05:09:10;;;;;;;28.75;10.15;;;;;;;6.21;90.97;99109.97;5032521;28;20044;-87
2024/02/21 05:11:37;;;;;;;24.08;9.20;;;;;;;6.04;90.89;99107.03;5027977;28;20044;-87
2024/02/21 05:14:04;;;;;;;25.15;9.77;;;;;;;5.95;91.39;99081.81;5030442;28;20045;-87
2024/02/21 05:16:30;;;;;;;23.75;9.63;;;;;;;6.31;90.34;99144.75;5030683;28;20080;-86
2024/02/21 05:18:56;;;;;;;22.02;9.57;;;;;;;6.07;91.39;99102.31;5013884;28;20042;-86
2024/02/21 05:21:23;;;;;;;20.27;9.90;;;;;;;6.25;90.89;99120.94;5014206;28;20475;-87
2024/02/21 05:23:49;;;;;;;22.75;10.52;;;;;;;6.37;90.56;99148.41;5033376;28;20496;-87
2024/02/21 05:26:22;;;;;;;17.17;9.95;;;;;;;6.33;91.31;99139.25;5014185;28;20022;-86
2024/02/21 05:28:48;;;;;;;22.27;11.57;;;;;;;6.24;90.61;99133.41;5025791;28;20044;-86
2024/02/21 05:31:14;;;;;;;23.35;10.88;;;;;;;6.62;89.84;99183.72;5025439;28;20026;-86
2024/02/21 05:33:39;;;;;;;20.55;9.95;;;;;;;6.56;90.59;99171.31;5016854;28;20033;-86
2024/02/21 05:36:05;;;;;;;27.38;10.63;;;;;;;5.84;90.13;99060.47;5026651;28;20473;-86
2024/02/21 05:38:31;;;;;;;23.52;11.23;;;;;;;6.53;90.06;99172.56;4997019;28;20029;-85
2024/02/21 05:40:57;;;;;;;28.83;12.90;;;;;;;6.12;90.19;99177.50;5033071;28;20030;-84
2024/02/21 05:43:22;;;;;;;25.13;10.95;;;;;;;6.10;91.65;99155.69;5029473;28;20053;-85
2024/02/21 05:45:48;;;;;;;27.38;11.73;;;;;;;6.54;90.05;99186.63;5027459;28;20056;-86
2024/02/21 05:48:14;;;;;;;21.15;9.82;;;;;;;6.69;90.09;99192.44;5012725;28;20026;-87
2024/02/21 05:50:39;;;;;;;26.75;10.50;;;;;;;6.26;90.31;99143.78;5023714;28;20107;-86
2024/02/21 05:53:04;;;;;;;27.00;10.55;;;;;;;6.28;90.37;99165.59;5015140;28;20065;-86
2024/02/21 05:55:30;;;;;;;25.50;12.55;;;;;;;6.48;89.83;99196.28;5028857;28;20049;-87
2024/02/21 05:57:55;;;;;;;19.30;11.52;;;;;;;6.55;89.92;99183.75;5030616;28;20467;-85
2024/02/21 06:00:21;;;;;;;20.98;10.15;;;;;;;6.66;89.73;99188.38;5018397;28;20070;-85
2024/02/21 06:02:46;;;;;;;27.23;11.38;;;;;;;6.63;90.40;99183.53;4998515;28;20504;-85
2024/02/21 06:05:12;;;;;;;26.77;12.50;;;;;;;6.01;89.66;99107.44;5032461;28;20025;-87
2024/02/21 06:07:38;;;;;;;18.98;9.75;;;;;;;6.56;90.01;99189.88;5014513;28;20034;-86
2024/02/21 06:10:09;;;;;;;22.50;10.00;;;;;;;6.35;90.12;99153.94;5026771;28;20021;-85
2024/02/21 06:12:37;;;;;;;25.77;12.57;;;;;;;6.11;90.85;99127.38;5023258;28;20037;-86
2024/02/21 06:15:03;;;;;;;20.30;11.43;;;;;;;6.42;91.03;99162.63;5025677;28;20021;-87
2024/02/21 06:17:28;;;;;;;27.13;11.50;;;;;;;6.52;89.86;99154.22;5028964;28;20029;-86
2024/02/21 06:19:54;;;;;;;26.63;11.38;;;;;;;6.27;90.48;99140.13;5018733;28;20619;-88
2024/02/21 06:22:19;;;;;;;23.45;12.13;;;;;;;6.49;89.92;99155.44;4999502;28;20076;-87
2024/02/21 06:24:45;;;;;;;29.05;11.77;;;;;;;6.57;89.30;99155.22;5036371;28;20043;-86
2024/02/21 06:27:11;;;;;;;24.05;11.98;;;;;;;6.14;88.70;99056.19;5038762;28;20480;-86
2024/02/21 06:29:37;;;;;;;23.48;11.60;;;;;;;6.67;89.23;99136.97;5010551;28;20404;-86
2024/02/21 06:32:03;;;;;;;37.85;13.88;;;;;;;6.64;89.49;99141.91;5032312;28;20040;-87
2024/02/21 06:34:28;;;;;;;19.63;11.05;;;;;;;6.10;89.28;99078.03;5031881;28;20487;-86
2024/02/21 06:36:54;;;;;;;27.40;12.00;;;;;;;6.46;90.14;99141.81;5029471;28;20404;-86
2024/02/21 06:39:19;;;;;;;28.13;10.85;;;;;;;6.07;89.34;99061.53;5030063;28;20056;-86
2024/02/21 06:41:45;;;;;;;30.55;10.80;;;;;;;6.50;90.23;99121.81;5026388;28;20120;-86
2024/02/21 06:44:10;;;;;;;20.98;10.32;;;;;;;6.02;89.88;99052.63;5027818;28;20127;-86
2024/02/21 06:46:36;;;;;;;26.45;11.85;;;;;;;6.38;90.37;99115.56;5033009;28;20408;-86
2024/02/21 06:49:05;;;;;;;27.70;10.95;;;;;;;6.33;90.79;99113.56;5037290;28;20048;-87
2024/02/21 06:51:30;;;;;;;24.50;10.63;;;;;;;6.39;89.78;99110.06;5028504;28;22266;-86
2024/02/21 06:53:56;;;;;;;23.52;12.68;;;;;;;6.38;90.38;99105.78;5016583;28;20033;-86
2024/02/21 06:56:28;;;;;;;19.15;10.57;;;;;;;6.31;89.74;99101.56;5012741;28;20033;-87
2024/02/21 06:58:57;;;;;;;25.27;11.13;;;;;;;6.22;90.31;99095.72;5027611;28;20026;-86
2024/02/21 07:01:22;;;;;;;25.45;11.43;;;;;;;6.31;90.30;99112.94;5010387;28;20396;-86
2024/02/21 07:03:48;;;;;;;23.20;10.48;;;;;;;6.10;90.24;99078.84;5028126;28;20026;-86
2024/02/21 07:06:13;;;;;;;22.38;10.18;;;;;;;6.33;90.44;99115.41;4996085;28;20121;-87
2024/02/21 07:08:39;;;;;;;27.65;11.85;;;;;;;5.99;90.27;99071.59;5049975;28;20033;-87
2024/02/21 07:11:05;;;;;;;27.35;12.15;;;;;;;5.90;90.42;99055.13;5037292;28;20120;-85
2024/02/21 07:13:30;;;;;;;22.80;10.10;;;;;;;6.25;90.76;99113.00;5034041;28;20041;-86
2024/02/21 07:15:55;;;;;;;26.35;10.98;;;;;;;6.11;90.49;99075.19;5025556;28;20037;-87
2024/02/21 07:18:21;;;;;;;20.98;10.52;;;;;;;6.30;89.86;99082.19;5027443;28;20033;-87
2024/02/21 07:20:46;;;;;;;28.20;10.95;;;;;;;6.34;89.71;99112.53;5035710;28;20115;-87
2024/02/21 07:23:12;;;;;;;23.38;11.63;;;;;;;5.81;89.76;99006.06;5031855;28;20060;-86
2024/02/21 07:25:37;;;;;;;20.63;9.60;;;;;;;6.25;89.40;99066.09;5034257;28;20551;-86
2024/02/21 07:28:03;;;;;;;25.83;12.27;;;;;;;6.43;89.08;99086.56;5033881;28;20029;-86
2024/02/21 07:30:28;;;;;;;23.42;10.43;;;;;;;6.22;89.42;99032.09;5030591;28;20072;-87
2024/02/21 07:32:53;;;;;;;18.98;10.40;;;;;;;6.56;88.15;99078.50;5015736;28;20037;-86
2024/02/21 07:35:19;;;;;;;25.73;10.43;;;;;;;6.56;88.57;99078.50;5037574;28;20159;-86
2024/02/21 07:37:44;;;;;;;22.50;11.52;;;;;;;6.42;89.36;99066.41;5033244;28;20021;-86
2024/02/21 07:40:14;;;;;;;19.00;9.40;;;;;;;6.42;89.51;99064.53;5031662;28;20040;-87
2024/02/21 07:42:40;;;;;;;20.65;9.70;;;;;;;6.29;89.25;99045.31;5023742;28;20102;-87
2024/02/21 07:45:07;;;;;;;18.98;10.15;;;;;;;6.21;89.88;99029.66;5031232;28;20033;-85
2024/02/21 07:47:32;;;;;;;24.52;9.68;;;;;;;6.42;89.58;99066.41;5038497;28;20034;-86
2024/02/21 07:49:58;;;;;;;25.40;10.20;;;;;;;6.39;89.61;99066.81;5035369;28;20038;-87
2024/02/21 07:52:24;;;;;;;24.85;9.93;;;;;;;6.28;89.48;99059.56;5030311;28;20053;-87
2024/02/21 07:54:49;;;;;;;22.35;11.18;;;;;;;6.27;89.67;99060.63;5000108;28;20560;-87
2024/02/21 07:57:15;;;;;;;21.33;10.02;;;;;;;5.70;89.17;98964.38;5027170;28;20053;-87
2024/02/21 07:59:40;;;;;;;22.60;10.23;;;;;;;5.78;89.00;98981.84;4995232;28;20060;-86
2024/02/21 08:02:06;;;;;;;23.33;9.57;;;;;;;6.41;89.45;99067.41;5035819;28;20096;-86
2024/02/21 08:04:33;;;;;;;25.38;10.75;;;;;;;6.18;89.74;99060.03;5015807;28;20060;-86
2024/02/21 08:07:03;;;;;;;23.95;9.27;;;;;;;5.73;89.24;98977.19;5041954;28;20385;-86
2024/02/21 08:09:29;;;;;;;20.38;10.30;;;;;;;6.18;90.06;99052.09;5017142;28;20033;-87
2024/02/21 08:11:54;;;;;;;22.95;9.93;;;;;;;6.34;89.07;99083.38;5030170;28;20048;-86
2024/02/21 08:14:20;;;;;;;29.92;10.90;;;;;;;6.36;89.41;99075.19;5029234;28;20163;-85
2024/02/21 08:16:46;;;;;;;21.13;9.77;;;;;;;6.34;89.42;99074.59;5017643;28;20032;-86
2024/02/21 08:19:11;;;;;;;18.42;9.07;;;;;;;6.27;89.30;99068.56;5035993;28;20037;-85
2024/02/21 08:21:36;;;;;;;19.92;9.38;;;;;;;6.01;89.37;99027.97;5030989;28;20052;-87
2024/02/21 08:24:02;;;;;;;16.23;9.20;;;;;;;6.07;88.55;99040.34;4999611;28;20037;-86
2024/02/21 08:26:30;;;;;;;15.85;9.05;;;;;;;6.06;88.62;99014.06;5034458;28;20026;-87
2024/02/21 08:28:58;;;;;;;23.35;9.73;;;;;;;6.26;88.50;99051.84;5017193;28;20036;-87
2024/02/21 08:31:28;;;;;;;22.58;9.52;;;;;;;6.09;88.38;99034.03;4998657;28;20053;-86
2024/02/21 08:33:53;;;;;;;16.77;8.38;;;;;;;6.38;88.57;99073.13;5036968;28;20079;-86
2024/02/21 08:36:20;;;;;;;22.52;9.07;;;;;;;6.46;88.27;99072.88;5015033;28;20052;-86
2024/02/21 08:38:46;;;;;;;16.05;9.60;;;;;;;6.34;88.57;99048.91;5032896;28;20037;-86
2024/02/21 08:41:12;;;;;;;22.50;7.68;;;;;;;6.36;88.25;99041.56;5029282;28;20531;-87
2024/02/21 08:43:37;;;;;;;16.27;7.35;;;;;;;6.29;87.97;99037.34;5019062;28;20037;-86
2024/02/21 08:46:03;;;;;;;16.65;8.63;;;;;;;6.35;88.69;99047.09;5033463;28;20044;-86
2024/02/21 08:48:28;;;;;;;21.38;8.25;;;;;;;6.37;88.54;99047.69;5032560;28;20030;-86
2024/02/21 08:50:54;;;;;;;13.63;7.28;;;;;;;6.39;88.73;99048.25;5037210;28;21341;-86
2024/02/21 08:53:20;;;;;;;15.48;7.90;;;;;;;6.22;89.01;99025.97;5033293;28;20029;-86
2024/02/21 08:55:45;;;;;;;19.10;8.32;;;;;;;6.45;88.12;99039.44;5038249;28;20108;-86
2024/02/21 08:58:11;;;;;;;16.38;8.07;;;;;;;6.32;87.82;99003.25;5026151;28;20122;-87
2024/02/21 09:00:37;;;;;;;17.25;7.72;;;;;;;6.44;87.69;99024.56;5023246;28;20033;-87
2024/02/21 09:03:02;;;;;;;18.85;8.13;;;;;;;6.40;88.34;99024.19;5036153;28;20108;-87
2024/02/21 09:05:28;;;;;;;18.05;7.43;;;;;;;6.32;87.95;99026.28;5032705;28;20099;-87
2024/02/21 09:07:54;;;;;;;16.10;8.30;;;;;;;6.33;87.97;98999.59;5038993;28;20048;-86
2024/02/21 09:10:20;;;;;;;20.80;8.50;;;;;;;6.64;87.73;99031.31;5035400;28;20030;-86
2024/02/21 09:12:45;;;;;;;20.75;6.93;;;;;;;6.65;88.10;99032.13;5036376;28;20029;-87
2024/02/21 09:15:11;;;;;;;15.30;6.60;;;;;;;6.63;87.38;99011.13;5032292;28;20037;-87
2024/02/21 09:17:36;;;;;;;17.85;7.60;;;;;;;6.69;87.14;99025.34;5033135;28;20401;-86
2024/02/21 09:20:03;;;;;;;14.00;6.75;;;;;;;6.77;86.69;99022.44;5032825;28;20033;-87
2024/02/21 09:22:29;;;;;;;13.27;7.32;;;;;;;6.64;86.59;99010.09;5034421;28;20177;-87
2024/02/21 09:24:55;;;;;;;19.02;8.20;;;;;;;6.47;87.82;98998.44;5034207;28;20093;-86
2024/02/21 09:27:20;;;;;;;18.27;7.22;;;;;;;6.70;86.65;99014.53;5035490;28;20040;-87
2024/02/21 09:29:46;;;;;;;12.73;6.55;;;;;;;6.93;86.26;99011.22;5029749;28;20028;-87
2024/02/21 09:32:12;;;;;;;14.77;7.65;;;;;;;6.88;86.17;99021.69;5034153;28;20024;-87
2024/02/21 09:34:37;;;;;;;14.82;7.68;;;;;;;6.84;85.76;98982.56;5024990;28;20139;-86
2024/02/21 09:37:03;;;;;;;15.20;7.28;;;;;;;6.77;85.36;98991.38;5022780;28;20071;-87
2024/02/21 09:39:28;;;;;;;18.75;6.63;;;;;;;6.66;85.48;98968.25;5029102;28;20026;-86
2024/02/21 09:41:59;;;;;;;21.00;7.13;;;;;;;6.43;84.93;98917.72;5014969;28;20411;-87
2024/02/21 09:44:30;;;;;;;15.48;6.68;;;;;;;7.04;85.21;99013.16;5035433;28;20069;-87
2024/02/21 09:47:05;;;;;;;18.08;7.20;;;;;;;6.97;85.07;98999.13;5034931;28;20512;-86
2024/02/21 09:49:37;;;;;;;12.40;5.85;;;;;;;6.79;84.60;98940.78;5034470;28;20057;-87
2024/02/21 09:52:04;;;;;;;15.50;6.10;;;;;;;7.20;84.25;98998.47;5034375;28;20039;-87
2024/02/21 09:54:33;;;;;;;13.20;6.53;;;;;;;7.23;84.34;99006.78;5039294;28;20033;-87
2024/02/21 09:57:03;;;;;;;17.85;6.88;;;;;;;7.28;83.86;98992.84;5035721;28;20033;-87
2024/02/21 09:59:32;;;;;;;15.43;6.35;;;;;;;7.03;84.04;98968.25;5034206;28;20029;-87
2024/02/21 10:02:00;;;;;;;16.08;7.30;;;;;;;7.32;83.83;99002.78;5036486;28;20021;-87
2024/02/21 10:04:25;;;;;;;16.15;7.47;;;;;;;7.36;84.20;99006.63;5015253;28;20039;-87
2024/02/21 10:06:51;;;;;;;13.63;6.55;;;;;;;7.10;84.38;98977.75;5031743;28;20132;-86
2024/02/21 10:09:21;;;;;;;14.27;6.70;;;;;;;7.22;82.93;98983.94;5015469;28;20053;-86
2024/02/21 10:11:46;;;;;;;20.35;6.65;;;;;;;7.29;83.49;98987.34;5017113;28;20287;-86
2024/02/21 10:14:11;;;;;;;12.07;6.60;;;;;;;7.41;82.63;98984.72;5015476;28;20037;-87
2024/02/21 10:16:37;;;;;;;13.95;6.78;;;;;;;7.27;83.64;98972.66;5017593;28;20041;-87
2024/02/21 10:19:03;;;;;;;19.55;7.18;;;;;;;7.36;83.27;98985.38;5035668;28;20108;-86
2024/02/21 10:21:29;;;;;;;10.57;5.72;;;;;;;7.49;83.49;98998.47;5034047;28;20021;-87
2024/02/21 10:23:55;;;;;;;23.00;7.00;;;;;;;7.35;83.43;98999.72;5035001;28;20041;-87
2024/02/21 10:26:20;;;;;;;19.42;6.70;;;;;;;7.40;82.88;98983.88;5031193;28;20492;-87
2024/02/21 10:28:51;;;;;;;15.55;7.18;;;;;;;7.56;82.79;98972.66;5033164;28;20036;-86
2024/02/21 10:31:27;;;;;;;14.57;6.93;;;;;;;7.50;82.77;98992.16;5031405;28;20040;-87
2024/02/21 10:34:02;;;;;;;18.27;6.50;;;;;;;7.56;82.87;98985.13;5029581;28;20536;-87
2024/02/21 10:36:29;;;;;;;17.95;6.15;;;;;;;7.63;82.89;98979.72;5024586;28;20037;-87
2024/02/21 10:38:54;;;;;;;12.80;6.13;;;;;;;7.55;82.02;98933.03;5032824;28;20072;-87
2024/02/21 10:41:21;;;;;;;20.17;6.70;;;;;;;7.79;82.32;98957.81;5033885;28;20358;-87
2024/02/21 10:43:51;;;;;;;15.43;6.18;;;;;;;7.76;81.89;98958.25;5022322;28;20025;-86
2024/02/21 10:46:19;;;;;;;13.90;6.45;;;;;;;7.89;82.18;98950.91;5032811;28;20040;-86
2024/02/21 10:48:47;;;;;;;14.68;6.15;;;;;;;7.98;80.77;98938.91;5036889;28;20100;-86
2024/02/21 10:51:22;;;;;;;14.88;6.40;;;;;;;7.93;81.33;98951.28;5035013;28;20030;-87
2024/02/21 10:54:02;;;;;;;12.32;5.60;;;;;;;8.03;81.30;98951.50;5039436;28;20479;-87
2024/02/21 10:56:36;;;;;;;15.07;6.75;;;;;;;7.80;81.04;98932.88;5035496;28;20710;-87
2024/02/21 10:59:06;;;;;;;15.27;6.60;;;;;;;7.87;81.79;98928.25;5032240;28;20021;-87
2024/02/21 11:01:31;;;;;;;16.38;6.20;;;;;;;7.36;81.15;98867.78;5031380;28;20535;-87
2024/02/21 11:04:01;;;;;;;11.38;6.07;;;;;;;7.61;81.03;98891.47;5032393;28;20124;-86
2024/02/21 11:06:30;;;;;;;20.33;7.35;;;;;;;7.72;81.50;98901.31;5019766;28;20059;-86
2024/02/21 11:09:08;;;;;;;10.55;5.93;;;;;;;7.72;80.78;98896.00;5038529;28;20052;-85
2024/02/21 11:11:35;;;;;;;11.98;5.65;;;;;;;7.54;80.82;98880.94;5036449;28;20037;-87
2024/02/21 11:14:27;;;;;;;13.45;6.45;;;;;;;7.92;80.30;98907.13;5037423;28;20027;-86
2024/02/21 11:16:58;;;;;;;16.00;5.88;;;;;;;7.90;81.02;98879.97;5037220;28;20033;-86
2024/02/21 11:19:28;;;;;;;18.98;5.90;;;;;;;8.05;80.15;98877.66;5039238;28;20119;-86
2024/02/21 11:21:57;;;;;;;13.05;6.88;;;;;;;7.92;80.27;98853.97;5003445;28;20029;-86
2024/02/21 11:24:31;;;;;;;14.07;5.75;;;;;;;8.27;80.21;98887.53;5038543;28;20462;-85
2024/02/21 11:27:11;;;;;;;11.20;5.03;;;;;;;7.83;80.72;98853.50;5037546;28;20025;-87
2024/02/21 11:29:53;;;;;;;13.98;5.38;;;;;;;8.06;80.10;98866.00;5039002;28;20032;-86